PWSweather.com
Personal Weather Stations
Station Observations
WATERF01
WaterfordIE

WaterfordIE

Lat: 52.2412507, Lon: -7.1414691

Elevation: 65

Station Type: Davis Vantage Vue

www.waterfordweather.com

High Low Average
Temperature 47.5°F8.6°C 44.3°F6.8°C 45.8°F7.7°C
Dew Point 45.5°F7.5°C 42.3°F5.7°C 44.1°F6.7°C
Winds 5.8 mph 9.3 kmh Calm Calm 1.0 mph WNW1.6 kmh WNW
Wind Gusts 8.1 mph13.0 kmh -- 3.0 mph4.8 kmh
Humidity 95% 89% 94%
Pressure 30.65 in1037.9 mb 30.55 in1034.5 mb -
Precipitation 0.00 in0.0 mm - -
Hour Temp Dew Point Humidity Winds Wind Gusts Pressure Precip Precip Rate Daily Precip Total
12:00 AM 44.8°F7.1°C 43.5°F6.4°C 95% 4.6 mph WNW7.4 kmh WNW 8.1 mph13.0 kmh 30.55 in1034.5 mb - 0.00 in0.0 mm 0.00 in0.0 mm
12:10 AM 45.3°F7.4°C 43.9°F6.6°C 95% 4.6 mph NW7.4 kmh NW 8.1 mph13.0 kmh 30.55 in1034.5 mb - 0.00 in0.0 mm 0.00 in0.0 mm
12:20 AM 45.7°F7.6°C 44.4°F6.9°C 95% 5.8 mph NW9.3 kmh NW 8.1 mph13.0 kmh 30.55 in1034.5 mb - 0.00 in0.0 mm 0.00 in0.0 mm
12:30 AM 45.9°F7.7°C 44.3°F6.8°C 94% 4.6 mph NW7.4 kmh NW 8.1 mph13.0 kmh 30.55 in1034.5 mb - 0.00 in0.0 mm 0.00 in0.0 mm
12:40 AM 46.0°F7.8°C 44.4°F6.9°C 94% 4.6 mph NW7.4 kmh NW 8.1 mph13.0 kmh 30.55 in1034.5 mb - 0.00 in0.0 mm 0.00 in0.0 mm
12:50 AM 46.3°F7.9°C 44.4°F6.9°C 93% 4.6 mph NW7.4 kmh NW 8.1 mph13.0 kmh 30.55 in1034.5 mb - 0.00 in0.0 mm 0.00 in0.0 mm
01:00 AM 46.3°F7.9°C 44.4°F6.9°C 93% 4.6 mph NW7.4 kmh NW 6.9 mph11.1 kmh 30.55 in1034.5 mb - 0.00 in0.0 mm 0.00 in0.0 mm
01:10 AM 46.3°F7.9°C 44.4°F6.9°C 93% 5.8 mph NW9.3 kmh NW 8.1 mph13.0 kmh 30.55 in1034.5 mb - 0.00 in0.0 mm 0.00 in0.0 mm
01:20 AM 46.1°F7.8°C 44.5°F6.9°C 94% 4.6 mph NW7.4 kmh NW 6.9 mph11.1 kmh 30.55 in1034.5 mb - 0.00 in0.0 mm 0.00 in0.0 mm
01:30 AM 46.2°F7.9°C 44.6°F7.0°C 94% 4.6 mph NW7.4 kmh NW 6.9 mph11.1 kmh 30.55 in1034.5 mb - 0.00 in0.0 mm 0.00 in0.0 mm
01:40 AM 46.1°F7.8°C 44.5°F6.9°C 94% 2.3 mph NW3.7 kmh NW 5.8 mph9.3 kmh 30.56 in1034.9 mb - 0.00 in0.0 mm 0.00 in0.0 mm
01:50 AM 46.1°F7.8°C 44.4°F6.9°C 94% 4.6 mph WNW7.4 kmh WNW 5.8 mph9.3 kmh 30.56 in1034.9 mb - 0.00 in0.0 mm 0.00 in0.0 mm
02:00 AM 46.0°F7.8°C 44.4°F6.9°C 94% 1.2 mph WNW1.9 kmh WNW 3.5 mph5.6 kmh 30.56 in1034.9 mb - 0.00 in0.0 mm 0.00 in0.0 mm
02:10 AM 46.0°F7.8°C 44.4°F6.9°C 94% 1.2 mph WNW1.9 kmh WNW 4.6 mph7.4 kmh 30.56 in1034.9 mb - 0.00 in0.0 mm 0.00 in0.0 mm
02:20 AM 45.9°F7.7°C 44.3°F6.8°C 94% 2.3 mph W3.7 kmh W 2.3 mph3.7 kmh 30.56 in1034.9 mb - 0.00 in0.0 mm 0.00 in0.0 mm
02:30 AM 45.9°F7.7°C 44.3°F6.8°C 94% 2.3 mph NW3.7 kmh NW 5.8 mph9.3 kmh 30.57 in1035.2 mb - 0.00 in0.0 mm 0.00 in0.0 mm
02:40 AM 45.9°F7.7°C 44.3°F6.8°C 94% 3.5 mph NW5.6 kmh NW 6.9 mph11.1 kmh 30.57 in1035.2 mb - 0.00 in0.0 mm 0.00 in0.0 mm
02:50 AM 45.9°F7.7°C 44.2°F6.8°C 94% 1.2 mph WNW1.9 kmh WNW 4.6 mph7.4 kmh 30.57 in1035.2 mb - 0.00 in0.0 mm 0.00 in0.0 mm
03:00 AM 45.8°F7.7°C 44.1°F6.7°C 94% 2.3 mph WNW3.7 kmh WNW 5.8 mph9.3 kmh 30.57 in1035.2 mb - 0.00 in0.0 mm 0.00 in0.0 mm
03:10 AM 45.6°F7.6°C 44.0°F6.7°C 94% 3.5 mph WNW5.6 kmh WNW 5.8 mph9.3 kmh 30.57 in1035.2 mb - 0.00 in0.0 mm 0.00 in0.0 mm
03:20 AM 45.6°F7.6°C 44.3°F6.8°C 95% 1.2 mph WNW1.9 kmh WNW 1.2 mph1.9 kmh 30.57 in1035.2 mb - 0.00 in0.0 mm 0.00 in0.0 mm
03:30 AM 45.7°F7.6°C 44.3°F6.8°C 95% 4.6 mph NW7.4 kmh NW 8.1 mph13.0 kmh 30.57 in1035.2 mb - 0.00 in0.0 mm 0.00 in0.0 mm
03:40 AM 45.7°F7.6°C 44.3°F6.8°C 95% 3.5 mph NW5.6 kmh NW 6.9 mph11.1 kmh 30.57 in1035.2 mb - 0.00 in0.0 mm 0.00 in0.0 mm
03:50 AM 45.7°F7.6°C 44.0°F6.7°C 94% 3.5 mph NW5.6 kmh NW 5.8 mph9.3 kmh 30.57 in1035.2 mb - 0.00 in0.0 mm 0.00 in0.0 mm
04:00 AM 45.7°F7.6°C 44.1°F6.7°C 94% 2.3 mph NW3.7 kmh NW 5.8 mph9.3 kmh 30.57 in1035.2 mb - 0.00 in0.0 mm 0.00 in0.0 mm
04:10 AM 45.6°F7.6°C 44.0°F6.7°C 94% 1.2 mph NW1.9 kmh NW 2.3 mph3.7 kmh 30.57 in1035.2 mb - 0.00 in0.0 mm 0.00 in0.0 mm
04:20 AM 45.6°F7.6°C 44.0°F6.7°C 94% 1.2 mph W1.9 kmh W 1.2 mph1.9 kmh 30.57 in1035.2 mb - 0.00 in0.0 mm 0.00 in0.0 mm
04:30 AM 45.6°F7.6°C 44.0°F6.7°C 94% Calm Calm 1.2 mph1.9 kmh 30.57 in1035.2 mb - 0.00 in0.0 mm 0.00 in0.0 mm
04:40 AM 45.5°F7.5°C 43.9°F6.6°C 94% Calm Calm 2.3 mph3.7 kmh 30.57 in1035.2 mb - 0.00 in0.0 mm 0.00 in0.0 mm
04:50 AM 45.4°F7.4°C 43.8°F6.6°C 94% 2.3 mph WNW3.7 kmh WNW 2.3 mph3.7 kmh 30.57 in1035.2 mb - 0.00 in0.0 mm 0.00 in0.0 mm
05:00 AM 45.4°F7.4°C 43.8°F6.6°C 94% 2.3 mph W3.7 kmh W 2.3 mph3.7 kmh 30.57 in1035.2 mb - 0.00 in0.0 mm 0.00 in0.0 mm
05:10 AM 45.3°F7.4°C 44.0°F6.7°C 95% Calm Calm 2.3 mph3.7 kmh 30.58 in1035.6 mb - 0.00 in0.0 mm 0.00 in0.0 mm
05:20 AM 45.3°F7.4°C 44.0°F6.7°C 95% Calm Calm 2.3 mph3.7 kmh 30.57 in1035.2 mb - 0.00 in0.0 mm 0.00 in0.0 mm
05:30 AM 45.4°F7.4°C 44.0°F6.7°C 95% 2.3 mph NW3.7 kmh NW 4.6 mph7.4 kmh 30.57 in1035.2 mb - 0.00 in0.0 mm 0.00 in0.0 mm
05:40 AM 45.4°F7.4°C 44.1°F6.7°C 95% 3.5 mph NW5.6 kmh NW 5.8 mph9.3 kmh 30.57 in1035.2 mb - 0.00 in0.0 mm 0.00 in0.0 mm
05:50 AM 45.4°F7.4°C 43.8°F6.6°C 94% 5.8 mph NW9.3 kmh NW 8.1 mph13.0 kmh 30.58 in1035.6 mb - 0.00 in0.0 mm 0.00 in0.0 mm
06:00 AM 45.4°F7.4°C 43.8°F6.6°C 94% 4.6 mph NW7.4 kmh NW 8.1 mph13.0 kmh 30.58 in1035.6 mb - 0.00 in0.0 mm 0.00 in0.0 mm
06:10 AM 45.3°F7.4°C 43.7°F6.5°C 94% 2.3 mph NW3.7 kmh NW 8.1 mph13.0 kmh 30.58 in1035.6 mb - 0.00 in0.0 mm 0.00 in0.0 mm
06:20 AM 45.3°F7.4°C 43.7°F6.5°C 94% 4.6 mph NW7.4 kmh NW 8.1 mph13.0 kmh 30.58 in1035.6 mb - 0.00 in0.0 mm 0.00 in0.0 mm
06:30 AM 45.2°F7.3°C 43.6°F6.4°C 94% 2.3 mph W3.7 kmh W 5.8 mph9.3 kmh 30.58 in1035.6 mb - 0.00 in0.0 mm 0.00 in0.0 mm
06:40 AM 45.3°F7.4°C 43.7°F6.5°C 94% 1.2 mph WNW1.9 kmh WNW 5.8 mph9.3 kmh 30.58 in1035.6 mb - 0.00 in0.0 mm 0.00 in0.0 mm
06:50 AM 45.2°F7.3°C 43.6°F6.4°C 94% 2.3 mph NW3.7 kmh NW 5.8 mph9.3 kmh 30.59 in1035.9 mb - 0.00 in0.0 mm 0.00 in0.0 mm
07:00 AM 45.2°F7.3°C 43.6°F6.4°C 94% 2.3 mph NW3.7 kmh NW 5.8 mph9.3 kmh 30.59 in1035.9 mb - 0.00 in0.0 mm 0.00 in0.0 mm
07:10 AM 45.1°F7.3°C 43.5°F6.4°C 94% 2.3 mph NW3.7 kmh NW 5.8 mph9.3 kmh 30.60 in1036.2 mb - 0.00 in0.0 mm 0.00 in0.0 mm
07:20 AM 45.1°F7.3°C 43.5°F6.4°C 94% 2.3 mph NW3.7 kmh NW 5.8 mph9.3 kmh 30.60 in1036.2 mb - 0.00 in0.0 mm 0.00 in0.0 mm
07:30 AM 45.1°F7.3°C 43.5°F6.4°C 94% 2.3 mph NW3.7 kmh NW 5.8 mph9.3 kmh 30.60 in1036.2 mb - 0.00 in0.0 mm 0.00 in0.0 mm
07:40 AM 45.1°F7.3°C 43.5°F6.4°C 94% 3.5 mph NW5.6 kmh NW 5.8 mph9.3 kmh 30.61 in1036.6 mb - 0.00 in0.0 mm 0.00 in0.0 mm
07:50 AM 45.0°F7.2°C 43.4°F6.3°C 94% 3.5 mph NW5.6 kmh NW 8.1 mph13.0 kmh 30.61 in1036.6 mb - 0.00 in0.0 mm 0.00 in0.0 mm
08:00 AM 44.9°F7.2°C 43.3°F6.3°C 94% 2.3 mph NW3.7 kmh NW 5.8 mph9.3 kmh 30.61 in1036.6 mb - 0.00 in0.0 mm 0.00 in0.0 mm
08:10 AM 44.8°F7.1°C 43.2°F6.2°C 94% 1.2 mph WNW1.9 kmh WNW 5.8 mph9.3 kmh 30.61 in1036.6 mb - 0.00 in0.0 mm 0.00 in0.0 mm
08:20 AM 44.7°F7.1°C 43.1°F6.2°C 94% 2.3 mph NW3.7 kmh NW 5.8 mph9.3 kmh 30.62 in1036.9 mb - 0.00 in0.0 mm 0.00 in0.0 mm
08:30 AM 44.6°F7.0°C 43.0°F6.1°C 94% 2.3 mph WNW3.7 kmh WNW 5.8 mph9.3 kmh 30.62 in1036.9 mb - 0.00 in0.0 mm 0.00 in0.0 mm
08:40 AM 44.5°F6.9°C 42.9°F6.1°C 94% 4.6 mph NW7.4 kmh NW 5.8 mph9.3 kmh 30.62 in1036.9 mb - 0.00 in0.0 mm 0.00 in0.0 mm
08:50 AM 44.3°F6.8°C 43.0°F6.1°C 95% 1.2 mph NW1.9 kmh NW 2.3 mph3.7 kmh 30.62 in1036.9 mb - 0.00 in0.0 mm 0.00 in0.0 mm
09:00 AM 44.3°F6.8°C 43.0°F6.1°C 95% 2.3 mph NW3.7 kmh NW 4.6 mph7.4 kmh 30.62 in1036.9 mb - 0.00 in0.0 mm 0.00 in0.0 mm
09:10 AM 44.3°F6.8°C 43.0°F6.1°C 95% 2.3 mph NW3.7 kmh NW 5.8 mph9.3 kmh 30.62 in1036.9 mb - 0.00 in0.0 mm 0.00 in0.0 mm
09:20 AM 44.4°F6.9°C 43.1°F6.2°C 95% 1.2 mph NW1.9 kmh NW 2.3 mph3.7 kmh 30.62 in1036.9 mb - 0.00 in0.0 mm 0.00 in0.0 mm
09:30 AM 44.5°F6.9°C 43.2°F6.2°C 95% 2.3 mph NW3.7 kmh NW 4.6 mph7.4 kmh 30.63 in1037.3 mb - 0.00 in0.0 mm 0.00 in0.0 mm
09:40 AM 44.4°F6.9°C 43.1°F6.2°C 95% 1.2 mph NW1.9 kmh NW 2.3 mph3.7 kmh 30.63 in1037.3 mb - 0.00 in0.0 mm 0.00 in0.0 mm
09:50 AM 44.4°F6.9°C 43.1°F6.2°C 95% 2.3 mph NNW3.7 kmh NNW 2.3 mph3.7 kmh 30.63 in1037.3 mb - 0.00 in0.0 mm 0.00 in0.0 mm
10:00 AM 44.5°F6.9°C 43.2°F6.2°C 95% 1.2 mph NW1.9 kmh NW 2.3 mph3.7 kmh 30.63 in1037.3 mb - 0.00 in0.0 mm 0.00 in0.0 mm
10:10 AM 44.6°F7.0°C 43.3°F6.3°C 95% Calm Calm 2.3 mph3.7 kmh 30.64 in1037.6 mb - 0.00 in0.0 mm 0.00 in0.0 mm
10:20 AM 44.6°F7.0°C 43.3°F6.3°C 95% Calm Calm -- 30.64 in1037.6 mb - 0.00 in0.0 mm 0.00 in0.0 mm
10:30 AM 44.8°F7.1°C 43.5°F6.4°C 95% Calm Calm -- 30.64 in1037.6 mb - 0.00 in0.0 mm 0.00 in0.0 mm
10:40 AM 44.8°F7.1°C 43.4°F6.3°C 95% Calm Calm -- 30.65 in1037.9 mb - 0.00 in0.0 mm 0.00 in0.0 mm
10:50 AM 44.8°F7.1°C 43.5°F6.4°C 95% 1.2 mph WNW1.9 kmh WNW 2.3 mph3.7 kmh 30.64 in1037.6 mb - 0.00 in0.0 mm 0.00 in0.0 mm
11:00 AM 44.9°F7.2°C 43.6°F6.4°C 95% 2.3 mph NW3.7 kmh NW 4.6 mph7.4 kmh 30.64 in1037.6 mb - 0.00 in0.0 mm 0.00 in0.0 mm
11:10 AM 44.9°F7.2°C 43.6°F6.4°C 95% 2.3 mph NW3.7 kmh NW 4.6 mph7.4 kmh 30.65 in1037.9 mb - 0.00 in0.0 mm 0.00 in0.0 mm
11:20 AM 45.1°F7.3°C 43.8°F6.6°C 95% 2.3 mph WNW3.7 kmh WNW 5.8 mph9.3 kmh 30.65 in1037.9 mb - 0.00 in0.0 mm 0.00 in0.0 mm
11:30 AM 45.3°F7.4°C 44.0°F6.7°C 95% Calm Calm 1.2 mph1.9 kmh 30.65 in1037.9 mb - 0.00 in0.0 mm 0.00 in0.0 mm
11:40 AM 45.4°F7.4°C 44.1°F6.7°C 95% 2.3 mph W3.7 kmh W 5.8 mph9.3 kmh 30.64 in1037.6 mb - 0.00 in0.0 mm 0.00 in0.0 mm
11:50 AM 45.4°F7.4°C 44.1°F6.7°C 95% 1.2 mph WNW1.9 kmh WNW 2.3 mph3.7 kmh 30.64 in1037.6 mb - 0.00 in0.0 mm 0.00 in0.0 mm
12:00 PM 45.5°F7.5°C 44.2°F6.8°C 95% 1.2 mph WNW1.9 kmh WNW 4.6 mph7.4 kmh 30.64 in1037.6 mb - 0.00 in0.0 mm 0.00 in0.0 mm
12:10 PM 45.6°F7.6°C 44.2°F6.8°C 95% 2.3 mph WNW3.7 kmh WNW 2.3 mph3.7 kmh 30.64 in1037.6 mb - 0.00 in0.0 mm 0.00 in0.0 mm
12:20 PM 45.7°F7.6°C 44.4°F6.9°C 95% 1.2 mph NW1.9 kmh NW 2.3 mph3.7 kmh 30.64 in1037.6 mb - 0.00 in0.0 mm 0.00 in0.0 mm
12:30 PM 46.1°F7.8°C 44.7°F7.1°C 95% Calm Calm 2.3 mph3.7 kmh 30.63 in1037.3 mb - 0.00 in0.0 mm 0.00 in0.0 mm
12:40 PM 46.4°F8.0°C 45.1°F7.3°C 95% Calm Calm 2.3 mph3.7 kmh 30.63 in1037.3 mb - 0.00 in0.0 mm 0.00 in0.0 mm
12:50 PM 46.5°F8.1°C 44.9°F7.2°C 94% 2.3 mph WNW3.7 kmh WNW 5.8 mph9.3 kmh 30.63 in1037.3 mb - 0.00 in0.0 mm 0.00 in0.0 mm
01:00 PM 46.5°F8.1°C 44.9°F7.2°C 94% 1.2 mph WNW1.9 kmh WNW 2.3 mph3.7 kmh 30.63 in1037.3 mb - 0.00 in0.0 mm 0.00 in0.0 mm
01:10 PM 46.6°F8.1°C 45.0°F7.2°C 94% Calm Calm 2.3 mph3.7 kmh 30.63 in1037.3 mb - 0.00 in0.0 mm 0.00 in0.0 mm
01:20 PM 46.8°F8.2°C 44.9°F7.2°C 93% 1.2 mph W1.9 kmh W 2.3 mph3.7 kmh 30.62 in1036.9 mb - 0.00 in0.0 mm 0.00 in0.0 mm
01:30 PM 47.4°F8.6°C 45.5°F7.5°C 93% 1.2 mph W1.9 kmh W 2.3 mph3.7 kmh 30.62 in1036.9 mb - 0.00 in0.0 mm 0.00 in0.0 mm
01:40 PM 47.3°F8.5°C 45.1°F7.3°C 92% 1.2 mph NW1.9 kmh NW 2.3 mph3.7 kmh 30.62 in1036.9 mb - 0.00 in0.0 mm 0.00 in0.0 mm
01:50 PM 47.1°F8.4°C 44.9°F7.2°C 92% 2.3 mph NW3.7 kmh NW 5.8 mph9.3 kmh 30.62 in1036.9 mb - 0.00 in0.0 mm 0.00 in0.0 mm
02:00 PM 47.0°F8.3°C 44.8°F7.1°C 92% Calm Calm 2.3 mph3.7 kmh 30.62 in1036.9 mb - 0.00 in0.0 mm 0.00 in0.0 mm
02:10 PM 47.1°F8.4°C 45.2°F7.3°C 93% Calm Calm -- 30.61 in1036.6 mb - 0.00 in0.0 mm 0.00 in0.0 mm
02:20 PM 47.1°F8.4°C 44.9°F7.2°C 92% Calm Calm 2.3 mph3.7 kmh 30.61 in1036.6 mb - 0.00 in0.0 mm 0.00 in0.0 mm
02:30 PM 47.5°F8.6°C 45.2°F7.3°C 92% Calm Calm -- 30.61 in1036.6 mb - 0.00 in0.0 mm 0.00 in0.0 mm
02:40 PM 47.3°F8.5°C 45.1°F7.3°C 92% Calm Calm 1.2 mph1.9 kmh 30.61 in1036.6 mb - 0.00 in0.0 mm 0.00 in0.0 mm
02:50 PM 47.3°F8.5°C 44.8°F7.1°C 91% Calm Calm -- 30.61 in1036.6 mb - 0.00 in0.0 mm 0.00 in0.0 mm
03:00 PM 47.4°F8.6°C 45.2°F7.3°C 92% Calm Calm 1.2 mph1.9 kmh 30.61 in1036.6 mb - 0.00 in0.0 mm 0.00 in0.0 mm
03:10 PM 47.3°F8.5°C 45.1°F7.3°C 92% 1.2 mph W1.9 kmh W 2.3 mph3.7 kmh 30.62 in1036.9 mb - 0.00 in0.0 mm 0.00 in0.0 mm
03:20 PM 47.4°F8.6°C 45.2°F7.3°C 92% Calm Calm 2.3 mph3.7 kmh 30.61 in1036.6 mb - 0.00 in0.0 mm 0.00 in0.0 mm
03:30 PM 47.4°F8.6°C 45.1°F7.3°C 92% Calm Calm 2.3 mph3.7 kmh 30.61 in1036.6 mb - 0.00 in0.0 mm 0.00 in0.0 mm
03:40 PM 47.3°F8.5°C 45.1°F7.3°C 92% Calm Calm -- 30.61 in1036.6 mb - 0.00 in0.0 mm 0.00 in0.0 mm
03:50 PM 47.3°F8.5°C 45.1°F7.3°C 92% Calm Calm -- 30.62 in1036.9 mb - 0.00 in0.0 mm 0.00 in0.0 mm
04:00 PM 47.2°F8.4°C 45.0°F7.2°C 92% Calm Calm 1.2 mph1.9 kmh 30.62 in1036.9 mb - 0.00 in0.0 mm 0.00 in0.0 mm
04:10 PM 47.2°F8.4°C 45.0°F7.2°C 92% Calm Calm 1.2 mph1.9 kmh 30.62 in1036.9 mb - 0.00 in0.0 mm 0.00 in0.0 mm
04:20 PM 47.2°F8.4°C 45.0°F7.2°C 92% Calm Calm -- 30.62 in1036.9 mb - 0.00 in0.0 mm 0.00 in0.0 mm
04:30 PM 47.1°F8.4°C 44.9°F7.2°C 92% Calm Calm -- 30.62 in1036.9 mb - 0.00 in0.0 mm 0.00 in0.0 mm
04:40 PM 46.9°F8.3°C 45.0°F7.2°C 93% Calm Calm -- 30.62 in1036.9 mb - 0.00 in0.0 mm 0.00 in0.0 mm
04:50 PM 46.8°F8.2°C 44.9°F7.2°C 93% Calm Calm -- 30.62 in1036.9 mb - 0.00 in0.0 mm 0.00 in0.0 mm
05:00 PM 46.6°F8.1°C 44.7°F7.1°C 93% Calm Calm -- 30.63 in1037.3 mb - 0.00 in0.0 mm 0.00 in0.0 mm
05:10 PM 46.5°F8.1°C 44.6°F7.0°C 93% Calm Calm -- 30.63 in1037.3 mb - 0.00 in0.0 mm 0.00 in0.0 mm
05:20 PM 46.5°F8.1°C 44.6°F7.0°C 93% Calm Calm -- 30.63 in1037.3 mb - 0.00 in0.0 mm 0.00 in0.0 mm
05:30 PM 46.5°F8.1°C 44.6°F7.0°C 93% Calm Calm -- 30.63 in1037.3 mb - 0.00 in0.0 mm 0.00 in0.0 mm
05:40 PM 46.4°F8.0°C 44.5°F6.9°C 93% Calm Calm -- 30.63 in1037.3 mb - 0.00 in0.0 mm 0.00 in0.0 mm
05:50 PM 46.4°F8.0°C 44.5°F6.9°C 93% Calm Calm -- 30.63 in1037.3 mb - 0.00 in0.0 mm 0.00 in0.0 mm
06:00 PM 46.4°F8.0°C 44.8°F7.1°C 94% Calm Calm -- 30.63 in1037.3 mb - 0.00 in0.0 mm 0.00 in0.0 mm
06:10 PM 46.4°F8.0°C 44.8°F7.1°C 94% Calm Calm -- 30.63 in1037.3 mb - 0.00 in0.0 mm 0.00 in0.0 mm
06:20 PM 46.3°F7.9°C 44.7°F7.1°C 94% Calm Calm -- 30.63 in1037.3 mb - 0.00 in0.0 mm 0.00 in0.0 mm
06:30 PM 46.3°F7.9°C 44.7°F7.1°C 94% Calm Calm -- 30.63 in1037.3 mb - 0.00 in0.0 mm 0.00 in0.0 mm
06:40 PM 46.1°F7.8°C 44.5°F6.9°C 94% Calm Calm -- 30.63 in1037.3 mb - 0.00 in0.0 mm 0.00 in0.0 mm
06:50 PM 46.1°F7.8°C 44.5°F6.9°C 94% Calm Calm -- 30.63 in1037.3 mb - 0.00 in0.0 mm 0.00 in0.0 mm
07:00 PM 46.1°F7.8°C 44.5°F6.9°C 94% Calm Calm -- 30.63 in1037.3 mb - 0.00 in0.0 mm 0.00 in0.0 mm
07:10 PM 46.0°F7.8°C 44.4°F6.9°C 94% Calm Calm -- 30.63 in1037.3 mb - 0.00 in0.0 mm 0.00 in0.0 mm
07:20 PM 46.0°F7.8°C 44.4°F6.9°C 94% Calm Calm -- 30.63 in1037.3 mb - 0.00 in0.0 mm 0.00 in0.0 mm
07:30 PM 46.0°F7.8°C 44.4°F6.9°C 94% Calm Calm -- 30.63 in1037.3 mb - 0.00 in0.0 mm 0.00 in0.0 mm
07:40 PM 46.0°F7.8°C 44.1°F6.7°C 93% Calm Calm -- 30.63 in1037.3 mb - 0.00 in0.0 mm 0.00 in0.0 mm
07:50 PM 45.9°F7.7°C 44.0°F6.7°C 93% Calm Calm 1.2 mph1.9 kmh 30.63 in1037.3 mb - 0.00 in0.0 mm 0.00 in0.0 mm
08:00 PM 45.9°F7.7°C 44.0°F6.7°C 93% Calm Calm 1.2 mph1.9 kmh 30.63 in1037.3 mb - 0.00 in0.0 mm 0.00 in0.0 mm
08:10 PM 45.9°F7.7°C 44.0°F6.7°C 93% Calm Calm -- 30.63 in1037.3 mb - 0.00 in0.0 mm 0.00 in0.0 mm
08:20 PM 45.9°F7.7°C 44.0°F6.7°C 93% Calm Calm -- 30.63 in1037.3 mb - 0.00 in0.0 mm 0.00 in0.0 mm
08:30 PM 45.8°F7.7°C 43.9°F6.6°C 93% Calm Calm -- 30.63 in1037.3 mb - 0.00 in0.0 mm 0.00 in0.0 mm
08:40 PM 45.8°F7.7°C 43.9°F6.6°C 93% Calm Calm 2.3 mph3.7 kmh 30.63 in1037.3 mb - 0.00 in0.0 mm 0.00 in0.0 mm
08:50 PM 45.7°F7.6°C 43.8°F6.6°C 93% Calm Calm 1.2 mph1.9 kmh 30.63 in1037.3 mb - 0.00 in0.0 mm 0.00 in0.0 mm
09:00 PM 45.6°F7.6°C 43.7°F6.5°C 93% Calm Calm -- 30.63 in1037.3 mb - 0.00 in0.0 mm 0.00 in0.0 mm
09:10 PM 45.7°F7.6°C 43.7°F6.5°C 93% 1.2 mph NW1.9 kmh NW 2.3 mph3.7 kmh 30.63 in1037.3 mb - 0.00 in0.0 mm 0.00 in0.0 mm
09:20 PM 45.8°F7.7°C 43.7°F6.5°C 92% 1.2 mph NW1.9 kmh NW 2.3 mph3.7 kmh 30.63 in1037.3 mb - 0.00 in0.0 mm 0.00 in0.0 mm
09:30 PM 45.9°F7.7°C 43.7°F6.5°C 92% Calm Calm 1.2 mph1.9 kmh 30.63 in1037.3 mb - 0.00 in0.0 mm 0.00 in0.0 mm
09:40 PM 45.8°F7.7°C 43.6°F6.4°C 92% Calm Calm -- 30.63 in1037.3 mb - 0.00 in0.0 mm 0.00 in0.0 mm
09:50 PM 45.9°F7.7°C 43.7°F6.5°C 92% Calm Calm 1.2 mph1.9 kmh 30.63 in1037.3 mb - 0.00 in0.0 mm 0.00 in0.0 mm
10:00 PM 45.9°F7.7°C 43.7°F6.5°C 92% Calm Calm -- 30.63 in1037.3 mb - 0.00 in0.0 mm 0.00 in0.0 mm
10:10 PM 45.8°F7.7°C 43.8°F6.6°C 93% Calm Calm -- 30.63 in1037.3 mb - 0.00 in0.0 mm 0.00 in0.0 mm
10:20 PM 45.6°F7.6°C 43.7°F6.5°C 93% Calm Calm -- 30.63 in1037.3 mb - 0.00 in0.0 mm 0.00 in0.0 mm
10:30 PM 45.5°F7.5°C 43.6°F6.4°C 93% Calm Calm -- 30.62 in1036.9 mb - 0.00 in0.0 mm 0.00 in0.0 mm
10:40 PM 45.4°F7.4°C 43.5°F6.4°C 93% Calm Calm -- 30.63 in1037.3 mb - 0.00 in0.0 mm 0.00 in0.0 mm
10:50 PM 45.4°F7.4°C 43.5°F6.4°C 93% Calm Calm -- 30.62 in1036.9 mb - 0.00 in0.0 mm 0.00 in0.0 mm
11:00 PM 45.4°F7.4°C 43.5°F6.4°C 93% Calm Calm -- 30.62 in1036.9 mb - 0.00 in0.0 mm 0.00 in0.0 mm
11:10 PM 45.2°F7.3°C 43.0°F6.1°C 92% 1.2 mph WSW1.9 kmh WSW 1.2 mph1.9 kmh 30.62 in1036.9 mb - 0.00 in0.0 mm 0.00 in0.0 mm
11:20 PM 45.1°F7.3°C 42.9°F6.1°C 92% 2.3 mph W3.7 kmh W 6.9 mph11.1 kmh 30.62 in1036.9 mb - 0.00 in0.0 mm 0.00 in0.0 mm
11:30 PM 45.2°F7.3°C 42.4°F5.8°C 90% 1.2 mph W1.9 kmh W 4.6 mph7.4 kmh 30.62 in1036.9 mb - 0.00 in0.0 mm 0.00 in0.0 mm
11:40 PM 45.4°F7.4°C 42.3°F5.7°C 89% Calm Calm 5.8 mph9.3 kmh 30.62 in1036.9 mb - 0.00 in0.0 mm 0.00 in0.0 mm
11:50 PM 45.5°F7.5°C 42.4°F5.8°C 89% Calm Calm -- 30.62 in1036.9 mb - 0.00 in0.0 mm 0.00 in0.0 mm